sensor_id;sensor_type;location;lat;lon;timestamp;pressure;altitude;pressure_sealevel;temperature;humidity
68137;BME280;54939;50.826;9.030;2023-04-30T00:00:21;99167.06;;;14.72;56.90
68137;BME280;54939;50.826;9.030;2023-04-30T00:00:51;99175.13;;;14.72;56.98
68137;BME280;54939;50.826;9.030;2023-04-30T00:01:21;99171.59;;;14.72;57.03
68137;BME280;54939;50.826;9.030;2023-04-30T00:01:52;99171.59;;;14.72;56.99
68137;BME280;54939;50.826;9.030;2023-04-30T00:02:22;99170.75;;;14.71;57.06
68137;BME280;54939;50.826;9.030;2023-04-30T00:02:52;99169.75;;;14.72;57.11
68137;BME280;54939;50.826;9.030;2023-04-30T00:03:22;99167.06;;;14.72;57.05
68137;BME280;54939;50.826;9.030;2023-04-30T00:03:53;99167.91;;;14.73;57.03
68137;BME280;54939;50.826;9.030;2023-04-30T00:04:23;99169.75;;;14.72;57.00
68137;BME280;54939;50.826;9.030;2023-04-30T00:04:53;99172.44;;;14.72;56.90
68137;BME280;54939;50.826;9.030;2023-04-30T00:05:23;99173.28;;;14.73;57.01
68137;BME280;54939;50.826;9.030;2023-04-30T00:05:54;99177.81;;;14.72;57.08
68137;BME280;54939;50.826;9.030;2023-04-30T00:06:24;99174.28;;;14.72;56.95
68137;BME280;54939;50.826;9.030;2023-04-30T00:06:55;99174.28;;;14.72;56.96
68137;BME280;54939;50.826;9.030;2023-04-30T00:07:25;99172.44;;;14.72;57.00
68137;BME280;54939;50.826;9.030;2023-04-30T00:07:55;99174.28;;;14.72;57.08
68137;BME280;54939;50.826;9.030;2023-04-30T00:08:25;99172.44;;;14.72;57.13
68137;BME280;54939;50.826;9.030;2023-04-30T00:08:56;99168.22;;;14.70;57.05
68137;BME280;54939;50.826;9.030;2023-04-30T00:09:26;99172.59;;;14.71;56.89
68137;BME280;54939;50.826;9.030;2023-04-30T00:09:56;99169.06;;;14.70;57.18
68137;BME280;54939;50.826;9.030;2023-04-30T00:10:27;99171.75;;;14.70;57.04
68137;BME280;54939;50.826;9.030;2023-04-30T00:10:57;99178.81;;;14.71;56.95
68137;BME280;54939;50.826;9.030;2023-04-30T00:11:27;99175.28;;;14.71;57.04
68137;BME280;54939;50.826;9.030;2023-04-30T00:11:57;99171.59;;;14.72;56.90
68137;BME280;54939;50.826;9.030;2023-04-30T00:12:27;99170.91;;;14.70;57.01
68137;BME280;54939;50.826;9.030;2023-04-30T00:12:57;99170.91;;;14.70;56.96
68137;BME280;54939;50.826;9.030;2023-04-30T00:13:28;99171.75;;;14.70;56.96
68137;BME280;54939;50.826;9.030;2023-04-30T00:13:58;99175.28;;;14.71;56.94
68137;BME280;54939;50.826;9.030;2023-04-30T00:14:28;99177.81;;;14.72;56.95
68137;BME280;54939;50.826;9.030;2023-04-30T00:14:58;99175.28;;;14.71;57.01
68137;BME280;54939;50.826;9.030;2023-04-30T00:15:29;99169.06;;;14.70;57.30
68137;BME280;54939;50.826;9.030;2023-04-30T00:16:00;99175.28;;;14.71;56.90
68137;BME280;54939;50.826;9.030;2023-04-30T00:16:30;99179.81;;;14.70;56.91
68137;BME280;54939;50.826;9.030;2023-04-30T00:17:00;99175.28;;;14.71;56.90
68137;BME280;54939;50.826;9.030;2023-04-30T00:17:30;99171.75;;;14.70;56.90
68137;BME280;54939;50.826;9.030;2023-04-30T00:18:01;99174.28;;;14.72;56.99
68137;BME280;54939;50.826;9.030;2023-04-30T00:18:31;99173.59;;;14.70;57.07
68137;BME280;54939;50.826;9.030;2023-04-30T00:19:01;99183.34;;;14.71;57.07
68137;BME280;54939;50.826;9.030;2023-04-30T00:19:31;99178.13;;;14.69;57.00
68137;BME280;54939;50.826;9.030;2023-04-30T00:20:01;99173.59;;;14.70;56.94
68137;BME280;54939;50.826;9.030;2023-04-30T00:20:32;99181.66;;;14.70;57.06
68137;BME280;54939;50.826;9.030;2023-04-30T00:21:04;99175.44;;;14.69;56.89
68137;BME280;54939;50.826;9.030;2023-04-30T00:21:34;99172.75;;;14.69;57.05
68137;BME280;54939;50.826;9.030;2023-04-30T00:22:05;99172.75;;;14.69;57.00
68137;BME280;54939;50.826;9.030;2023-04-30T00:22:35;99175.44;;;14.69;57.11
68137;BME280;54939;50.826;9.030;2023-04-30T00:23:05;99179.81;;;14.70;57.09
68137;BME280;54939;50.826;9.030;2023-04-30T00:23:35;99181.50;;;14.71;57.01
68137;BME280;54939;50.826;9.030;2023-04-30T00:24:05;99170.06;;;14.69;56.90
68137;BME280;54939;50.826;9.030;2023-04-30T00:24:36;99176.44;;;14.68;56.85
68137;BME280;54939;50.826;9.030;2023-04-30T00:25:06;99175.44;;;14.69;57.04
68137;BME280;54939;50.826;9.030;2023-04-30T00:25:36;99178.13;;;14.69;57.01
68137;BME280;54939;50.826;9.030;2023-04-30T00:26:06;99178.97;;;14.70;57.04
68137;BME280;54939;50.826;9.030;2023-04-30T00:26:36;99172.91;;;14.68;56.95
68137;BME280;54939;50.826;9.030;2023-04-30T00:27:07;99177.28;;;14.69;56.86
68137;BME280;54939;50.826;9.030;2023-04-30T00:27:37;99179.13;;;14.68;57.01
68137;BME280;54939;50.826;9.030;2023-04-30T00:28:07;99182.66;;;14.69;57.08
68137;BME280;54939;50.826;9.030;2023-04-30T00:28:37;99179.97;;;14.69;57.08
68137;BME280;54939;50.826;9.030;2023-04-30T00:29:07;99174.59;;;14.69;57.01
68137;BME280;54939;50.826;9.030;2023-04-30T00:29:37;99185.34;;;14.69;56.83
68137;BME280;54939;50.826;9.030;2023-04-30T00:30:08;99178.28;;;14.68;56.84
68137;BME280;54939;50.826;9.030;2023-04-30T00:30:38;99185.34;;;14.69;57.03
68137;BME280;54939;50.826;9.030;2023-04-30T00:31:08;99178.97;;;14.70;56.98
68137;BME280;54939;50.826;9.030;2023-04-30T00:31:38;99185.34;;;14.69;56.73
68137;BME280;54939;50.826;9.030;2023-04-30T00:32:08;99183.50;;;14.69;56.84
68137;BME280;54939;50.826;9.030;2023-04-30T00:32:39;99182.66;;;14.69;56.99
68137;BME280;54939;50.826;9.030;2023-04-30T00:33:09;99186.19;;;14.69;56.87
68137;BME280;54939;50.826;9.030;2023-04-30T00:33:39;99180.81;;;14.69;56.88
68137;BME280;54939;50.826;9.030;2023-04-30T00:34:09;99183.50;;;14.69;56.80
68137;BME280;54939;50.826;9.030;2023-04-30T00:34:39;99181.81;;;14.68;56.99
68137;BME280;54939;50.826;9.030;2023-04-30T00:35:10;99184.50;;;14.68;57.02
68137;BME280;54939;50.826;9.030;2023-04-30T00:35:40;99182.84;;;14.67;56.79
68137;BME280;54939;50.826;9.030;2023-04-30T00:36:11;99185.34;;;14.69;57.02
68137;BME280;54939;50.826;9.030;2023-04-30T00:36:41;99184.50;;;14.68;56.83
68137;BME280;54939;50.826;9.030;2023-04-30T00:37:11;99179.13;;;14.68;56.85
68137;BME280;54939;50.826;9.030;2023-04-30T00:37:41;99179.13;;;14.68;57.06
68137;BME280;54939;50.826;9.030;2023-04-30T00:38:11;99175.59;;;14.68;56.79
68137;BME280;54939;50.826;9.030;2023-04-30T00:38:42;99179.13;;;14.68;56.99
68137;BME280;54939;50.826;9.030;2023-04-30T00:39:12;99179.97;;;14.69;57.04
68137;BME280;54939;50.826;9.030;2023-04-30T00:39:42;99174.78;;;14.67;56.86
68137;BME280;54939;50.826;9.030;2023-04-30T00:40:12;99186.34;;;14.68;56.96
68137;BME280;54939;50.826;9.030;2023-04-30T00:40:42;99183.69;;;14.68;56.99
68137;BME280;54939;50.826;9.030;2023-04-30T00:41:13;99180.13;;;14.67;57.01
68137;BME280;54939;50.826;9.030;2023-04-30T00:41:43;99184.50;;;14.68;56.89
68137;BME280;54939;50.826;9.030;2023-04-30T00:42:13;99179.31;;;14.67;56.79
68137;BME280;54939;50.826;9.030;2023-04-30T00:42:43;99177.47;;;14.67;56.87
68137;BME280;54939;50.826;9.030;2023-04-30T00:43:13;99181.16;;;14.66;56.85
68137;BME280;54939;50.826;9.030;2023-04-30T00:43:43;99178.47;;;14.66;56.92
68137;BME280;54939;50.826;9.030;2023-04-30T00:44:16;99180.97;;;14.68;56.84
68137;BME280;54939;50.826;9.030;2023-04-30T00:44:46;99180.97;;;14.68;56.88
68137;BME280;54939;50.826;9.030;2023-04-30T00:45:16;99175.59;;;14.68;56.91
68137;BME280;54939;50.826;9.030;2023-04-30T00:45:50;99181.81;;;14.68;56.94
68137;BME280;54939;50.826;9.030;2023-04-30T00:46:21;99174.78;;;14.67;56.88
68137;BME280;54939;50.826;9.030;2023-04-30T00:46:51;99173.75;;;14.68;57.00
68137;BME280;54939;50.826;9.030;2023-04-30T00:47:21;99172.91;;;14.68;57.05
68137;BME280;54939;50.826;9.030;2023-04-30T00:47:51;99174.78;;;14.67;56.94
68137;BME280;54939;50.826;9.030;2023-04-30T00:48:21;99180.97;;;14.68;56.97
68137;BME280;54939;50.826;9.030;2023-04-30T00:48:52;99176.63;;;14.67;56.82
68137;BME280;54939;50.826;9.030;2023-04-30T00:49:22;99173.09;;;14.66;56.98
68137;BME280;54939;50.826;9.030;2023-04-30T00:49:52;99176.63;;;14.67;57.10
68137;BME280;54939;50.826;9.030;2023-04-30T00:50:22;99183.84;;;14.66;56.93
68137;BME280;54939;50.826;9.030;2023-04-30T00:50:53;99176.63;;;14.67;56.84
68137;BME280;54939;50.826;9.030;2023-04-30T00:51:23;99176.63;;;14.67;57.01
68137;BME280;54939;50.826;9.030;2023-04-30T00:51:54;99178.47;;;14.66;56.91
68137;BME280;54939;50.826;9.030;2023-04-30T00:52:24;99174.13;;;14.65;56.85
68137;BME280;54939;50.826;9.030;2023-04-30T00:52:55;99175.78;;;14.66;56.90
68137;BME280;54939;50.826;9.030;2023-04-30T00:53:26;99175.78;;;14.66;57.02
68137;BME280;54939;50.826;9.030;2023-04-30T00:53:56;99174.13;;;14.65;56.96
68137;BME280;54939;50.826;9.030;2023-04-30T00:54:27;99178.47;;;14.66;56.82
68137;BME280;54939;50.826;9.030;2023-04-30T00:54:57;99174.13;;;14.65;56.94
68137;BME280;54939;50.826;9.030;2023-04-30T00:55:27;99176.81;;;14.65;56.94
68137;BME280;54939;50.826;9.030;2023-04-30T00:55:57;99171.44;;;14.65;56.92
68137;BME280;54939;50.826;9.030;2023-04-30T00:56:28;99177.66;;;14.66;56.92
68137;BME280;54939;50.826;9.030;2023-04-30T00:57:01;99175.78;;;14.66;56.85
68137;BME280;54939;50.826;9.030;2023-04-30T00:57:34;99177.81;;;14.64;57.19
68137;BME280;54939;50.826;9.030;2023-04-30T00:58:05;99176.81;;;14.65;56.74
68137;BME280;54939;50.826;9.030;2023-04-30T00:58:36;99175.13;;;14.64;57.03
68137;BME280;54939;50.826;9.030;2023-04-30T00:59:06;99175.97;;;14.65;56.82
68137;BME280;54939;50.826;9.030;2023-04-30T00:59:36;99178.47;;;14.66;56.86
68137;BME280;54939;50.826;9.030;2023-04-30T01:00:07;99179.50;;;14.65;56.94
68137;BME280;54939;50.826;9.030;2023-04-30T01:00:41;99182.19;;;14.65;57.01
68137;BME280;54939;50.826;9.030;2023-04-30T01:01:16;99178.66;;;14.65;56.81
68137;BME280;54939;50.826;9.030;2023-04-30T01:01:46;99176.81;;;14.65;56.71
68137;BME280;54939;50.826;9.030;2023-04-30T01:02:17;99180.34;;;14.66;56.87
68137;BME280;54939;50.826;9.030;2023-04-30T01:02:47;99177.66;;;14.66;56.91
68137;BME280;54939;50.826;9.030;2023-04-30T01:03:18;99184.03;;;14.65;56.78
68137;BME280;54939;50.826;9.030;2023-04-30T01:03:49;99181.34;;;14.65;56.87
68137;BME280;54939;50.826;9.030;2023-04-30T01:04:19;99181.34;;;14.65;57.06
68137;BME280;54939;50.826;9.030;2023-04-30T01:04:49;99182.19;;;14.65;56.87
68137;BME280;54939;50.826;9.030;2023-04-30T01:05:19;99175.97;;;14.65;57.00
68137;BME280;54939;50.826;9.030;2023-04-30T01:05:51;99181.34;;;14.65;56.75
68137;BME280;54939;50.826;9.030;2023-04-30T01:06:23;99184.88;;;14.65;56.72
68137;BME280;54939;50.826;9.030;2023-04-30T01:06:55;99180.34;;;14.66;56.81
68137;BME280;54939;50.826;9.030;2023-04-30T01:07:26;99185.03;;;14.64;56.81
68137;BME280;54939;50.826;9.030;2023-04-30T01:07:57;99179.66;;;14.64;56.82
68137;BME280;54939;50.826;9.030;2023-04-30T01:08:28;99182.34;;;14.64;57.02
68137;BME280;54939;50.826;9.030;2023-04-30T01:08:58;99183.03;;;14.66;56.83
68137;BME280;54939;50.826;9.030;2023-04-30T01:09:29;99173.28;;;14.65;56.79
68137;BME280;54939;50.826;9.030;2023-04-30T01:09:59;99186.72;;;14.65;56.83
68137;BME280;54939;50.826;9.030;2023-04-30T01:10:31;99181.34;;;14.65;56.87
68137;BME280;54939;50.826;9.030;2023-04-30T01:12:29;99182.34;;;14.64;56.87
68137;BME280;54939;50.826;9.030;2023-04-30T01:13:09;99188.56;;;14.64;56.88
68137;BME280;54939;50.826;9.030;2023-04-30T01:14:32;99183.19;;;14.64;56.77
68137;BME280;54939;50.826;9.030;2023-04-30T01:15:12;99190.41;;;14.64;56.66
68137;BME280;54939;50.826;9.030;2023-04-30T01:16:29;99184.03;;;14.65;56.91
68137;BME280;54939;50.826;9.030;2023-04-30T01:16:40;99185.88;;;14.64;56.85
68137;BME280;54939;50.826;9.030;2023-04-30T01:17:16;99181.66;;;14.62;56.86
68137;BME280;54939;50.826;9.030;2023-04-30T01:18:12;99190.41;;;14.64;56.95
68137;BME280;54939;50.826;9.030;2023-04-30T01:18:51;99185.03;;;14.64;56.67
68137;BME280;54939;50.826;9.030;2023-04-30T01:19:28;99190.41;;;14.64;56.67
68137;BME280;54939;50.826;9.030;2023-04-30T01:20:04;99186.03;;;14.63;56.84
68137;BME280;54939;50.826;9.030;2023-04-30T01:20:36;99187.03;;;14.62;56.88
68137;BME280;54939;50.826;9.030;2023-04-30T01:21:08;99188.72;;;14.63;56.77
68137;BME280;54939;50.826;9.030;2023-04-30T01:21:38;99192.25;;;14.63;56.63
68137;BME280;54939;50.826;9.030;2023-04-30T01:24:37;99188.72;;;14.63;56.72
68137;BME280;54939;50.826;9.030;2023-04-30T01:26:06;99192.25;;;14.63;56.80
68137;BME280;54939;50.826;9.030;2023-04-30T01:28:02;99188.72;;;14.63;56.63
68137;BME280;54939;50.826;9.030;2023-04-30T01:28:34;99198.63;;;14.62;56.79
68137;BME280;54939;50.826;9.030;2023-04-30T01:29:05;99194.09;;;14.63;56.79
68137;BME280;54939;50.826;9.030;2023-04-30T01:29:35;99200.47;;;14.62;56.76
68137;BME280;54939;50.826;9.030;2023-04-30T01:30:08;99198.63;;;14.62;56.85
68137;BME280;54939;50.826;9.030;2023-04-30T01:30:39;99198.63;;;14.62;56.55
68137;BME280;54939;50.826;9.030;2023-04-30T01:31:13;99196.94;;;14.61;56.73
68137;BME280;54939;50.826;9.030;2023-04-30T01:31:44;99198.63;;;14.62;56.81
68137;BME280;54939;50.826;9.030;2023-04-30T01:32:15;99197.78;;;14.62;56.75
68137;BME280;54939;50.826;9.030;2023-04-30T01:32:45;99189.72;;;14.62;56.91
68137;BME280;54939;50.826;9.030;2023-04-30T01:33:15;99194.25;;;14.61;56.78
68137;BME280;54939;50.826;9.030;2023-04-30T01:33:45;99195.09;;;14.62;56.71
68137;BME280;54939;50.826;9.030;2023-04-30T01:34:15;99197.78;;;14.62;56.61
68137;BME280;54939;50.826;9.030;2023-04-30T01:34:45;99195.09;;;14.62;56.79
68137;BME280;54939;50.826;9.030;2023-04-30T01:35:16;99198.63;;;14.62;56.75
68137;BME280;54939;50.826;9.030;2023-04-30T01:35:57;99191.56;;;14.61;56.87
68137;BME280;54939;50.826;9.030;2023-04-30T01:36:34;99188.03;;;14.61;56.74
68137;BME280;54939;50.826;9.030;2023-04-30T01:38:45;99189.88;;;14.60;56.79
68137;BME280;54939;50.826;9.030;2023-04-30T01:40:22;99204.16;;;14.61;56.83
68137;BME280;54939;50.826;9.030;2023-04-30T01:40:57;99205.16;;;14.59;56.77
68137;BME280;54939;50.826;9.030;2023-04-30T01:41:31;99196.25;;;14.59;56.79
68137;BME280;54939;50.826;9.030;2023-04-30T01:42:12;99204.16;;;14.61;56.74
68137;BME280;54939;50.826;9.030;2023-04-30T01:42:54;99207.84;;;14.59;56.85
68137;BME280;54939;50.826;9.030;2023-04-30T01:43:34;99205.16;;;14.59;56.82
68137;BME280;54939;50.826;9.030;2023-04-30T01:46:13;99214.06;;;14.60;56.61
68137;BME280;54939;50.826;9.030;2023-04-30T01:48:53;99212.22;;;14.61;56.64
68137;BME280;54939;50.826;9.030;2023-04-30T01:49:57;99215.06;;;14.59;56.83
68137;BME280;54939;50.826;9.030;2023-04-30T01:51:14;99213.41;;;14.58;56.91
68137;BME280;54939;50.826;9.030;2023-04-30T01:51:45;99209.69;;;14.59;56.69
68137;BME280;54939;50.826;9.030;2023-04-30T01:52:17;99212.38;;;14.59;56.76
68137;BME280;54939;50.826;9.030;2023-04-30T01:52:50;99218.59;;;14.59;56.79
68137;BME280;54939;50.826;9.030;2023-04-30T01:53:28;99215.06;;;14.59;56.75
68137;BME280;54939;50.826;9.030;2023-04-30T01:54:05;99215.91;;;14.59;56.84
68137;BME280;54939;50.826;9.030;2023-04-30T01:54:41;99209.69;;;14.59;56.73
68137;BME280;54939;50.826;9.030;2023-04-30T01:55:17;99212.38;;;14.59;56.59
68137;BME280;54939;50.826;9.030;2023-04-30T01:55:53;99216.25;;;14.56;56.64
68137;BME280;54939;50.826;9.030;2023-04-30T01:56:26;99214.06;;;14.60;56.76
68137;BME280;54939;50.826;9.030;2023-04-30T01:57:02;99217.75;;;14.59;56.65
68137;BME280;54939;50.826;9.030;2023-04-30T01:57:36;99213.41;;;14.58;56.73
68137;BME280;54939;50.826;9.030;2023-04-30T01:58:11;99216.25;;;14.56;56.74
68137;BME280;54939;50.826;9.030;2023-04-30T01:58:41;99217.94;;;14.57;56.70
68137;BME280;54939;50.826;9.030;2023-04-30T01:59:12;99216.25;;;14.56;56.78
68137;BME280;54939;50.826;9.030;2023-04-30T01:59:43;99217.09;;;14.57;56.67
68137;BME280;54939;50.826;9.030;2023-04-30T02:00:14;99210.88;;;14.56;56.73
68137;BME280;54939;50.826;9.030;2023-04-30T02:00:46;99217.09;;;14.57;56.81
68137;BME280;54939;50.826;9.030;2023-04-30T02:01:29;99209.03;;;14.57;56.81
68137;BME280;54939;50.826;9.030;2023-04-30T02:01:59;99217.94;;;14.57;56.78
68137;BME280;54939;50.826;9.030;2023-04-30T02:02:30;99219.78;;;14.57;56.79
68137;BME280;54939;50.826;9.030;2023-04-30T02:03:00;99213.56;;;14.56;56.82
68137;BME280;54939;50.826;9.030;2023-04-30T02:03:31;99223.31;;;14.57;56.76
68137;BME280;54939;50.826;9.030;2023-04-30T02:04:01;99210.88;;;14.56;56.81
68137;BME280;54939;50.826;9.030;2023-04-30T02:04:32;99218.09;;;14.56;56.83
68137;BME280;54939;50.826;9.030;2023-04-30T02:05:02;99220.63;;;14.57;56.64
68137;BME280;54939;50.826;9.030;2023-04-30T02:05:33;99221.47;;;14.58;56.71
68137;BME280;54939;50.826;9.030;2023-04-30T02:06:03;99223.31;;;14.57;56.67
68137;BME280;54939;50.826;9.030;2023-04-30T02:06:33;99216.25;;;14.56;56.65
68137;BME280;54939;50.826;9.030;2023-04-30T02:07:04;99215.41;;;14.56;56.58
68137;BME280;54939;50.826;9.030;2023-04-30T02:07:39;99213.72;;;14.55;56.60
68137;BME280;54939;50.826;9.030;2023-04-30T02:08:09;99220.78;;;14.56;56.71
68137;BME280;54939;50.826;9.030;2023-04-30T02:08:39;99222.63;;;14.55;56.62
68137;BME280;54939;50.826;9.030;2023-04-30T02:09:10;99214.56;;;14.55;56.68
68137;BME280;54939;50.826;9.030;2023-04-30T02:09:40;99217.25;;;14.55;56.63
68137;BME280;54939;50.826;9.030;2023-04-30T02:10:10;99220.78;;;14.56;56.59
68137;BME280;54939;50.826;9.030;2023-04-30T02:10:41;99211.88;;;14.55;56.78
68137;BME280;54939;50.826;9.030;2023-04-30T02:11:11;99218.25;;;14.54;56.72
68137;BME280;54939;50.826;9.030;2023-04-30T02:11:41;99219.09;;;14.55;56.69
68137;BME280;54939;50.826;9.030;2023-04-30T02:12:12;99217.41;;;14.54;56.73
68137;BME280;54939;50.826;9.030;2023-04-30T02:12:42;99218.25;;;14.54;56.60
68137;BME280;54939;50.826;9.030;2023-04-30T02:13:12;99217.41;;;14.54;56.78
68137;BME280;54939;50.826;9.030;2023-04-30T02:13:43;99219.09;;;14.55;56.80
68137;BME280;54939;50.826;9.030;2023-04-30T02:14:13;99225.31;;;14.55;56.65
68137;BME280;54939;50.826;9.030;2023-04-30T02:14:43;99210.22;;;14.54;56.70
68137;BME280;54939;50.826;9.030;2023-04-30T02:15:13;99213.72;;;14.55;56.59
68137;BME280;54939;50.826;9.030;2023-04-30T02:15:44;99216.56;;;14.53;56.74
68137;BME280;54939;50.826;9.030;2023-04-30T02:16:14;99216.56;;;14.53;56.72
68137;BME280;54939;50.826;9.030;2023-04-30T02:16:44;99213.91;;;14.53;56.72
68137;BME280;54939;50.826;9.030;2023-04-30T02:17:14;99212.06;;;14.54;56.73
68137;BME280;54939;50.826;9.030;2023-04-30T02:17:44;99218.25;;;14.54;56.60
68137;BME280;54939;50.826;9.030;2023-04-30T02:18:15;99213.91;;;14.53;56.79
68137;BME280;54939;50.826;9.030;2023-04-30T02:18:45;99217.41;;;14.54;56.74
68137;BME280;54939;50.826;9.030;2023-04-30T02:19:15;99210.38;;;14.53;56.84
68137;BME280;54939;50.826;9.030;2023-04-30T02:19:45;99207.69;;;14.53;56.76
68137;BME280;54939;50.826;9.030;2023-04-30T02:20:16;99216.56;;;14.53;56.81
68137;BME280;54939;50.826;9.030;2023-04-30T02:20:46;99214.91;;;14.52;56.81
68137;BME280;54939;50.826;9.030;2023-04-30T02:21:16;99217.59;;;14.52;56.84
68137;BME280;54939;50.826;9.030;2023-04-30T02:21:47;99208.53;;;14.53;56.74
68137;BME280;54939;50.826;9.030;2023-04-30T02:22:17;99213.06;;;14.53;56.88
68137;BME280;54939;50.826;9.030;2023-04-30T02:22:47;99208.53;;;14.53;56.86
68137;BME280;54939;50.826;9.030;2023-04-30T02:23:17;99215.75;;;14.53;56.64
68137;BME280;54939;50.826;9.030;2023-04-30T02:23:48;99216.56;;;14.53;56.66
68137;BME280;54939;50.826;9.030;2023-04-30T02:24:18;99220.28;;;14.52;56.89
68137;BME280;54939;50.826;9.030;2023-04-30T02:24:48;99217.59;;;14.52;56.81
68137;BME280;54939;50.826;9.030;2023-04-30T02:25:19;99222.97;;;14.52;56.67
68137;BME280;54939;50.826;9.030;2023-04-30T02:25:49;99222.97;;;14.52;56.69
68137;BME280;54939;50.826;9.030;2023-04-30T02:26:19;99219.47;;;14.52;56.72
68137;BME280;54939;50.826;9.030;2023-04-30T02:26:50;99222.16;;;14.52;56.61
68137;BME280;54939;50.826;9.030;2023-04-30T02:27:21;99222.97;;;14.52;56.84
68137;BME280;54939;50.826;9.030;2023-04-30T02:27:52;99222.97;;;14.52;56.69
68137;BME280;54939;50.826;9.030;2023-04-30T02:28:22;99221.31;;;14.51;56.82
68137;BME280;54939;50.826;9.030;2023-04-30T02:28:52;99216.94;;;14.50;56.69
68137;BME280;54939;50.826;9.030;2023-04-30T02:29:22;99218.63;;;14.51;56.75
68137;BME280;54939;50.826;9.030;2023-04-30T02:29:53;99228.34;;;14.52;56.58
68137;BME280;54939;50.826;9.030;2023-04-30T02:30:23;99227.53;;;14.52;56.75
68137;BME280;54939;50.826;9.030;2023-04-30T02:30:53;99225.63;;;14.52;56.74
68137;BME280;54939;50.826;9.030;2023-04-30T02:31:23;99227.53;;;14.52;56.80
68137;BME280;54939;50.826;9.030;2023-04-30T02:31:56;99228.34;;;14.52;56.75
68137;BME280;54939;50.826;9.030;2023-04-30T02:32:26;99230.22;;;14.52;56.56
68137;BME280;54939;50.826;9.030;2023-04-30T02:32:56;99231.00;;;14.52;56.62
68137;BME280;54939;50.826;9.030;2023-04-30T02:33:27;99231.84;;;14.53;56.56
68137;BME280;54939;50.826;9.030;2023-04-30T02:33:57;99231.00;;;14.52;56.62
68137;BME280;54939;50.826;9.030;2023-04-30T02:34:27;99241.75;;;14.52;56.75
68137;BME280;54939;50.826;9.030;2023-04-30T02:34:57;99239.06;;;14.52;56.72
68137;BME280;54939;50.826;9.030;2023-04-30T02:35:27;99230.38;;;14.50;56.58
68137;BME280;54939;50.826;9.030;2023-04-30T02:35:58;99227.69;;;14.50;56.77
68137;BME280;54939;50.826;9.030;2023-04-30T02:36:29;99233.06;;;14.50;56.65
68137;BME280;54939;50.826;9.030;2023-04-30T02:37:02;99233.91;;;14.51;56.73
68137;BME280;54939;50.826;9.030;2023-04-30T02:37:32;99240.09;;;14.51;56.62
68137;BME280;54939;50.826;9.030;2023-04-30T02:38:02;99232.22;;;14.50;56.68
68137;BME280;54939;50.826;9.030;2023-04-30T02:38:33;99231.22;;;14.51;56.56
68137;BME280;54939;50.826;9.030;2023-04-30T02:39:03;99230.38;;;14.50;56.66
68137;BME280;54939;50.826;9.030;2023-04-30T02:39:33;99233.91;;;14.51;56.63
68137;BME280;54939;50.826;9.030;2023-04-30T02:40:04;99232.22;;;14.50;56.59
68137;BME280;54939;50.826;9.030;2023-04-30T02:40:34;99235.75;;;14.50;56.62
68137;BME280;54939;50.826;9.030;2023-04-30T02:41:04;99234.91;;;14.50;56.62
68137;BME280;54939;50.826;9.030;2023-04-30T02:41:34;99233.22;;;14.49;56.72
68137;BME280;54939;50.826;9.030;2023-04-30T02:42:05;99234.91;;;14.50;56.51
68137;BME280;54939;50.826;9.030;2023-04-30T02:42:35;99240.28;;;14.50;56.71
68137;BME280;54939;50.826;9.030;2023-04-30T02:43:05;99227.84;;;14.49;56.58
68137;BME280;54939;50.826;9.030;2023-04-30T02:43:36;99236.38;;;14.52;56.72
68137;BME280;54939;50.826;9.030;2023-04-30T02:44:06;99233.06;;;14.50;56.78
68137;BME280;54939;50.826;9.030;2023-04-30T02:44:36;99236.56;;;14.51;56.71
68137;BME280;54939;50.826;9.030;2023-04-30T02:45:06;99233.06;;;14.50;56.82
68137;BME280;54939;50.826;9.030;2023-04-30T02:45:37;99234.91;;;14.50;56.71
68137;BME280;54939;50.826;9.030;2023-04-30T02:46:07;99232.22;;;14.50;56.67
68137;BME280;54939;50.826;9.030;2023-04-30T02:46:37;99238.59;;;14.49;56.54
68137;BME280;54939;50.826;9.030;2023-04-30T02:47:07;99231.38;;;14.49;56.82
68137;BME280;54939;50.826;9.030;2023-04-30T02:47:38;99234.06;;;14.49;56.66
68137;BME280;54939;50.826;9.030;2023-04-30T02:48:08;99236.75;;;14.49;56.78
68137;BME280;54939;50.826;9.030;2023-04-30T02:48:38;99239.44;;;14.49;56.55
68137;BME280;54939;50.826;9.030;2023-04-30T02:49:08;99236.75;;;14.49;56.76
68137;BME280;54939;50.826;9.030;2023-04-30T02:49:38;99235.06;;;14.48;56.69
68137;BME280;54939;50.826;9.030;2023-04-30T02:50:09;99242.09;;;14.49;56.74
68137;BME280;54939;50.826;9.030;2023-04-30T02:50:39;99245.81;;;14.48;56.70
68137;BME280;54939;50.826;9.030;2023-04-30T02:51:09;99244.97;;;14.48;56.68
68137;BME280;54939;50.826;9.030;2023-04-30T02:51:39;99238.75;;;14.47;56.60
68137;BME280;54939;50.826;9.030;2023-04-30T02:52:10;99242.09;;;14.49;56.63
68137;BME280;54939;50.826;9.030;2023-04-30T02:52:40;99240.44;;;14.48;56.56
68137;BME280;54939;50.826;9.030;2023-04-30T02:53:10;99235.06;;;14.48;56.63
68137;BME280;54939;50.826;9.030;2023-04-30T02:53:40;99240.44;;;14.48;56.63
68137;BME280;54939;50.826;9.030;2023-04-30T02:54:10;99237.91;;;14.47;56.65
68137;BME280;54939;50.826;9.030;2023-04-30T02:54:40;99241.44;;;14.47;56.60
68137;BME280;54939;50.826;9.030;2023-04-30T02:55:11;99233.38;;;14.47;56.57
68137;BME280;54939;50.826;9.030;2023-04-30T02:55:42;99241.44;;;14.47;56.60
68137;BME280;54939;50.826;9.030;2023-04-30T02:56:12;99236.91;;;14.48;56.53
68137;BME280;54939;50.826;9.030;2023-04-30T02:56:42;99239.75;;;14.46;56.69
68137;BME280;54939;50.826;9.030;2023-04-30T02:57:13;99236.06;;;14.47;56.76
68137;BME280;54939;50.826;9.030;2023-04-30T02:57:43;99233.38;;;14.47;56.68
68137;BME280;54939;50.826;9.030;2023-04-30T02:58:13;99229.69;;;14.48;56.61
68137;BME280;54939;50.826;9.030;2023-04-30T02:58:43;99228.00;;;14.47;56.63
68137;BME280;54939;50.826;9.030;2023-04-30T02:59:14;99236.91;;;14.48;56.55
68137;BME280;54939;50.826;9.030;2023-04-30T02:59:44;99240.59;;;14.47;56.77
68137;BME280;54939;50.826;9.030;2023-04-30T03:00:15;99232.38;;;14.48;56.72
68137;BME280;54939;50.826;9.030;2023-04-30T03:00:46;99237.75;;;14.48;56.61